sensor_id;sensor_type;location;lat;lon;timestamp;P1;durP1;ratioP1;P2;durP2;ratioP2
10132;SDS011;5106;50.926;7.080;2022-08-21T00:00:34;5.43;;;4.72;;
10132;SDS011;5106;50.926;7.080;2022-08-21T00:03:03;8.57;;;5.50;;
10132;SDS011;5106;50.926;7.080;2022-08-21T00:05:31;6.50;;;5.35;;
10132;SDS011;5106;50.926;7.080;2022-08-21T00:07:58;7.70;;;4.95;;
10132;SDS011;5106;50.926;7.080;2022-08-21T00:10:24;6.47;;;4.95;;
10132;SDS011;5106;50.926;7.080;2022-08-21T00:12:49;7.45;;;5.55;;
10132;SDS011;5106;50.926;7.080;2022-08-21T00:15:18;7.22;;;5.60;;
10132;SDS011;5106;50.926;7.080;2022-08-21T00:17:46;5.50;;;4.80;;
10132;SDS011;5106;50.926;7.080;2022-08-21T00:20:13;6.47;;;5.00;;
10132;SDS011;5106;50.926;7.080;2022-08-21T00:22:41;7.57;;;5.93;;
10132;SDS011;5106;50.926;7.080;2022-08-21T00:25:07;7.22;;;5.00;;
10132;SDS011;5106;50.926;7.080;2022-08-21T00:27:34;6.68;;;5.22;;
10132;SDS011;5106;50.926;7.080;2022-08-21T00:29:59;7.90;;;5.32;;
10132;SDS011;5106;50.926;7.080;2022-08-21T00:32:26;6.57;;;5.30;;
10132;SDS011;5106;50.926;7.080;2022-08-21T00:34:52;6.88;;;5.35;;
10132;SDS011;5106;50.926;7.080;2022-08-21T00:37:19;8.10;;;5.28;;
10132;SDS011;5106;50.926;7.080;2022-08-21T00:39:45;6.00;;;5.40;;
10132;SDS011;5106;50.926;7.080;2022-08-21T00:42:12;7.20;;;5.35;;
10132;SDS011;5106;50.926;7.080;2022-08-21T00:44:42;6.45;;;5.57;;
10132;SDS011;5106;50.926;7.080;2022-08-21T00:47:08;8.00;;;5.57;;
10132;SDS011;5106;50.926;7.080;2022-08-21T00:49:35;5.72;;;5.05;;
10132;SDS011;5106;50.926;7.080;2022-08-21T00:52:02;6.32;;;5.32;;
10132;SDS011;5106;50.926;7.080;2022-08-21T00:54:29;7.20;;;5.88;;
10132;SDS011;5106;50.926;7.080;2022-08-21T00:56:58;7.50;;;5.65;;
10132;SDS011;5106;50.926;7.080;2022-08-21T00:59:29;10.00;;;6.53;;
10132;SDS011;5106;50.926;7.080;2022-08-21T01:01:59;7.53;;;5.75;;
10132;SDS011;5106;50.926;7.080;2022-08-21T01:04:25;8.05;;;6.60;;
10132;SDS011;5106;50.926;7.080;2022-08-21T01:06:51;6.82;;;5.93;;
10132;SDS011;5106;50.926;7.080;2022-08-21T01:09:18;7.20;;;6.22;;
10132;SDS011;5106;50.926;7.080;2022-08-21T01:11:44;7.85;;;5.90;;
10132;SDS011;5106;50.926;7.080;2022-08-21T01:14:11;6.50;;;5.75;;
10132;SDS011;5106;50.926;7.080;2022-08-21T01:16:38;9.25;;;6.10;;
10132;SDS011;5106;50.926;7.080;2022-08-21T01:19:06;11.77;;;6.70;;
10132;SDS011;5106;50.926;7.080;2022-08-21T01:21:34;7.10;;;6.15;;
10132;SDS011;5106;50.926;7.080;2022-08-21T01:23:59;8.20;;;6.00;;
10132;SDS011;5106;50.926;7.080;2022-08-21T01:26:27;6.88;;;5.95;;
10132;SDS011;5106;50.926;7.080;2022-08-21T01:31:31;7.63;;;6.18;;
10132;SDS011;5106;50.926;7.080;2022-08-21T01:33:58;6.25;;;5.30;;
10132;SDS011;5106;50.926;7.080;2022-08-21T01:36:24;7.80;;;5.93;;
10132;SDS011;5106;50.926;7.080;2022-08-21T01:38:50;9.05;;;6.15;;
10132;SDS011;5106;50.926;7.080;2022-08-21T01:41:16;8.00;;;6.43;;
10132;SDS011;5106;50.926;7.080;2022-08-21T01:43:43;9.90;;;6.10;;
10132;SDS011;5106;50.926;7.080;2022-08-21T01:46:10;9.98;;;6.38;;
10132;SDS011;5106;50.926;7.080;2022-08-21T01:48:36;8.70;;;6.15;;
10132;SDS011;5106;50.926;7.080;2022-08-21T01:51:02;8.05;;;6.45;;
10132;SDS011;5106;50.926;7.080;2022-08-21T01:53:29;10.25;;;6.22;;
10132;SDS011;5106;50.926;7.080;2022-08-21T01:55:55;7.68;;;6.25;;
10132;SDS011;5106;50.926;7.080;2022-08-21T01:58:20;7.72;;;6.40;;
10132;SDS011;5106;50.926;7.080;2022-08-21T02:00:46;7.07;;;5.63;;
10132;SDS011;5106;50.926;7.080;2022-08-21T02:03:13;8.55;;;6.32;;
10132;SDS011;5106;50.926;7.080;2022-08-21T02:05:38;7.50;;;6.47;;
10132;SDS011;5106;50.926;7.080;2022-08-21T02:08:05;8.05;;;5.78;;
10132;SDS011;5106;50.926;7.080;2022-08-21T02:10:31;7.90;;;6.47;;
10132;SDS011;5106;50.926;7.080;2022-08-21T02:12:57;7.38;;;6.05;;
10132;SDS011;5106;50.926;7.080;2022-08-21T02:15:25;7.30;;;5.78;;
10132;SDS011;5106;50.926;7.080;2022-08-21T02:17:53;6.70;;;6.00;;
10132;SDS011;5106;50.926;7.080;2022-08-21T02:20:30;7.72;;;6.10;;
10132;SDS011;5106;50.926;7.080;2022-08-21T02:22:58;7.53;;;5.78;;
10132;SDS011;5106;50.926;7.080;2022-08-21T02:25:24;8.48;;;5.88;;
10132;SDS011;5106;50.926;7.080;2022-08-21T02:27:51;6.72;;;6.03;;
10132;SDS011;5106;50.926;7.080;2022-08-21T02:30:18;8.30;;;6.38;;
10132;SDS011;5106;50.926;7.080;2022-08-21T02:32:55;9.88;;;6.57;;
10132;SDS011;5106;50.926;7.080;2022-08-21T02:35:21;8.77;;;6.20;;
10132;SDS011;5106;50.926;7.080;2022-08-21T02:40:13;6.57;;;5.85;;
10132;SDS011;5106;50.926;7.080;2022-08-21T02:42:39;7.28;;;5.53;;
10132;SDS011;5106;50.926;7.080;2022-08-21T02:45:05;8.18;;;6.35;;
10132;SDS011;5106;50.926;7.080;2022-08-21T02:47:31;8.57;;;6.07;;
10132;SDS011;5106;50.926;7.080;2022-08-21T02:49:56;7.80;;;6.22;;
10132;SDS011;5106;50.926;7.080;2022-08-21T02:52:22;8.63;;;5.85;;
10132;SDS011;5106;50.926;7.080;2022-08-21T02:54:49;6.80;;;5.70;;
10132;SDS011;5106;50.926;7.080;2022-08-21T02:57:15;8.50;;;6.70;;
10132;SDS011;5106;50.926;7.080;2022-08-21T02:59:40;7.45;;;6.30;;
10132;SDS011;5106;50.926;7.080;2022-08-21T03:02:06;8.07;;;6.13;;
10132;SDS011;5106;50.926;7.080;2022-08-21T03:04:32;8.65;;;6.43;;
10132;SDS011;5106;50.926;7.080;2022-08-21T03:06:58;8.52;;;6.10;;
10132;SDS011;5106;50.926;7.080;2022-08-21T03:09:23;7.90;;;6.40;;
10132;SDS011;5106;50.926;7.080;2022-08-21T03:11:49;7.60;;;6.43;;
10132;SDS011;5106;50.926;7.080;2022-08-21T03:14:16;11.48;;;6.30;;
10132;SDS011;5106;50.926;7.080;2022-08-21T03:16:42;9.23;;;6.63;;
10132;SDS011;5106;50.926;7.080;2022-08-21T03:19:09;7.60;;;5.93;;
10132;SDS011;5106;50.926;7.080;2022-08-21T03:21:34;8.20;;;6.15;;
10132;SDS011;5106;50.926;7.080;2022-08-21T03:24:00;9.48;;;6.22;;
10132;SDS011;5106;50.926;7.080;2022-08-21T03:26:26;7.70;;;5.85;;
10132;SDS011;5106;50.926;7.080;2022-08-21T03:28:51;7.93;;;6.28;;
10132;SDS011;5106;50.926;7.080;2022-08-21T03:31:17;11.35;;;6.55;;
10132;SDS011;5106;50.926;7.080;2022-08-21T03:33:43;8.50;;;6.88;;
10132;SDS011;5106;50.926;7.080;2022-08-21T03:36:09;8.75;;;6.57;;
10132;SDS011;5106;50.926;7.080;2022-08-21T03:38:36;7.18;;;6.03;;
10132;SDS011;5106;50.926;7.080;2022-08-21T03:41:06;7.65;;;6.18;;
10132;SDS011;5106;50.926;7.080;2022-08-21T03:43:32;7.63;;;6.47;;
10132;SDS011;5106;50.926;7.080;2022-08-21T03:45:59;7.18;;;6.32;;
10132;SDS011;5106;50.926;7.080;2022-08-21T03:48:26;6.60;;;5.90;;
10132;SDS011;5106;50.926;7.080;2022-08-21T03:50:52;8.25;;;6.63;;
10132;SDS011;5106;50.926;7.080;2022-08-21T03:53:18;8.30;;;6.28;;
10132;SDS011;5106;50.926;7.080;2022-08-21T03:55:45;8.98;;;6.35;;
10132;SDS011;5106;50.926;7.080;2022-08-21T03:58:12;7.32;;;6.22;;
10132;SDS011;5106;50.926;7.080;2022-08-21T04:00:38;10.30;;;6.60;;
10132;SDS011;5106;50.926;7.080;2022-08-21T04:03:04;8.15;;;6.57;;
10132;SDS011;5106;50.926;7.080;2022-08-21T04:05:31;9.15;;;6.22;;
10132;SDS011;5106;50.926;7.080;2022-08-21T04:07:58;8.10;;;6.35;;
10132;SDS011;5106;50.926;7.080;2022-08-21T04:10:27;9.75;;;6.40;;
10132;SDS011;5106;50.926;7.080;2022-08-21T04:12:55;8.88;;;6.25;;
10132;SDS011;5106;50.926;7.080;2022-08-21T04:15:21;7.95;;;6.75;;
10132;SDS011;5106;50.926;7.080;2022-08-21T04:17:49;8.18;;;7.28;;
10132;SDS011;5106;50.926;7.080;2022-08-21T04:20:16;8.50;;;6.82;;
10132;SDS011;5106;50.926;7.080;2022-08-21T04:22:42;7.97;;;6.15;;
10132;SDS011;5106;50.926;7.080;2022-08-21T04:25:09;9.13;;;6.72;;
10132;SDS011;5106;50.926;7.080;2022-08-21T04:27:36;7.20;;;5.95;;
10132;SDS011;5106;50.926;7.080;2022-08-21T04:30:02;6.93;;;5.70;;
10132;SDS011;5106;50.926;7.080;2022-08-21T04:32:29;7.35;;;5.70;;
10132;SDS011;5106;50.926;7.080;2022-08-21T04:34:59;9.15;;;5.50;;
10132;SDS011;5106;50.926;7.080;2022-08-21T04:37:30;6.53;;;5.78;;
10132;SDS011;5106;50.926;7.080;2022-08-21T04:39:55;7.25;;;5.60;;
10132;SDS011;5106;50.926;7.080;2022-08-21T04:42:23;7.22;;;5.85;;
10132;SDS011;5106;50.926;7.080;2022-08-21T04:44:50;6.30;;;5.18;;
10132;SDS011;5106;50.926;7.080;2022-08-21T04:47:16;5.88;;;5.32;;
10132;SDS011;5106;50.926;7.080;2022-08-21T04:49:41;6.90;;;5.72;;
10132;SDS011;5106;50.926;7.080;2022-08-21T04:52:08;6.88;;;5.53;;
10132;SDS011;5106;50.926;7.080;2022-08-21T04:54:34;6.35;;;5.32;;
10132;SDS011;5106;50.926;7.080;2022-08-21T04:57:02;6.72;;;5.38;;
10132;SDS011;5106;50.926;7.080;2022-08-21T04:59:36;7.65;;;5.60;;
10132;SDS011;5106;50.926;7.080;2022-08-21T05:02:06;6.22;;;5.63;;
10132;SDS011;5106;50.926;7.080;2022-08-21T05:04:34;6.00;;;5.03;;
10132;SDS011;5106;50.926;7.080;2022-08-21T05:07:04;6.45;;;5.75;;
10132;SDS011;5106;50.926;7.080;2022-08-21T05:09:32;7.32;;;6.10;;
10132;SDS011;5106;50.926;7.080;2022-08-21T05:11:58;6.63;;;5.63;;
10132;SDS011;5106;50.926;7.080;2022-08-21T05:14:25;7.43;;;6.05;;
10132;SDS011;5106;50.926;7.080;2022-08-21T05:16:52;8.43;;;5.90;;
10132;SDS011;5106;50.926;7.080;2022-08-21T05:19:17;8.20;;;6.18;;
10132;SDS011;5106;50.926;7.080;2022-08-21T05:21:44;8.82;;;6.10;;
10132;SDS011;5106;50.926;7.080;2022-08-21T05:24:10;10.82;;;6.18;;
10132;SDS011;5106;50.926;7.080;2022-08-21T05:26:36;6.65;;;5.50;;
10132;SDS011;5106;50.926;7.080;2022-08-21T05:29:03;6.47;;;5.65;;
10132;SDS011;5106;50.926;7.080;2022-08-21T05:31:29;8.68;;;6.40;;
10132;SDS011;5106;50.926;7.080;2022-08-21T05:33:54;7.97;;;6.72;;
10132;SDS011;5106;50.926;7.080;2022-08-21T05:36:20;7.57;;;5.95;;
10132;SDS011;5106;50.926;7.080;2022-08-21T05:38:47;8.73;;;7.00;;
10132;SDS011;5106;50.926;7.080;2022-08-21T05:41:13;7.75;;;6.28;;
10132;SDS011;5106;50.926;7.080;2022-08-21T05:43:38;9.85;;;6.95;;
10132;SDS011;5106;50.926;7.080;2022-08-21T05:46:04;10.32;;;7.95;;
10132;SDS011;5106;50.926;7.080;2022-08-21T05:48:31;10.43;;;8.60;;
10132;SDS011;5106;50.926;7.080;2022-08-21T05:50:58;10.07;;;8.32;;
10132;SDS011;5106;50.926;7.080;2022-08-21T05:53:33;10.77;;;8.57;;
10132;SDS011;5106;50.926;7.080;2022-08-21T05:55:59;11.90;;;9.07;;
10132;SDS011;5106;50.926;7.080;2022-08-21T05:58:25;9.48;;;8.45;;
10132;SDS011;5106;50.926;7.080;2022-08-21T06:00:51;10.70;;;8.38;;
10132;SDS011;5106;50.926;7.080;2022-08-21T06:03:22;9.95;;;7.78;;
10132;SDS011;5106;50.926;7.080;2022-08-21T06:05:49;9.60;;;8.60;;
10132;SDS011;5106;50.926;7.080;2022-08-21T06:08:15;9.57;;;8.27;;
10132;SDS011;5106;50.926;7.080;2022-08-21T06:10:41;10.63;;;8.32;;
10132;SDS011;5106;50.926;7.080;2022-08-21T06:13:08;12.02;;;8.38;;
10132;SDS011;5106;50.926;7.080;2022-08-21T06:15:34;12.10;;;7.60;;
10132;SDS011;5106;50.926;7.080;2022-08-21T06:18:00;12.07;;;8.85;;
10132;SDS011;5106;50.926;7.080;2022-08-21T06:20:25;9.90;;;7.55;;
10132;SDS011;5106;50.926;7.080;2022-08-21T06:22:51;9.80;;;8.10;;
10132;SDS011;5106;50.926;7.080;2022-08-21T06:25:17;11.35;;;7.63;;
10132;SDS011;5106;50.926;7.080;2022-08-21T06:27:43;11.00;;;8.00;;
10132;SDS011;5106;50.926;7.080;2022-08-21T06:30:09;11.05;;;8.02;;
10132;SDS011;5106;50.926;7.080;2022-08-21T06:32:35;13.18;;;8.52;;
10132;SDS011;5106;50.926;7.080;2022-08-21T06:35:01;10.40;;;7.43;;
10132;SDS011;5106;50.926;7.080;2022-08-21T06:37:28;9.45;;;7.05;;
10132;SDS011;5106;50.926;7.080;2022-08-21T06:39:54;11.63;;;8.20;;
10132;SDS011;5106;50.926;7.080;2022-08-21T06:42:19;9.43;;;7.60;;
10132;SDS011;5106;50.926;7.080;2022-08-21T06:44:46;7.22;;;6.47;;
10132;SDS011;5106;50.926;7.080;2022-08-21T06:47:12;9.43;;;6.55;;
10132;SDS011;5106;50.926;7.080;2022-08-21T06:49:38;10.85;;;7.22;;
10132;SDS011;5106;50.926;7.080;2022-08-21T06:52:08;13.93;;;6.88;;
10132;SDS011;5106;50.926;7.080;2022-08-21T06:54:37;8.80;;;6.10;;
10132;SDS011;5106;50.926;7.080;2022-08-21T06:57:04;10.63;;;6.55;;
10132;SDS011;5106;50.926;7.080;2022-08-21T06:59:30;13.15;;;7.70;;
10132;SDS011;5106;50.926;7.080;2022-08-21T07:01:56;8.82;;;6.50;;
10132;SDS011;5106;50.926;7.080;2022-08-21T07:04:22;8.95;;;6.75;;
10132;SDS011;5106;50.926;7.080;2022-08-21T07:06:48;10.07;;;7.25;;
10132;SDS011;5106;50.926;7.080;2022-08-21T07:09:14;8.20;;;6.07;;
10132;SDS011;5106;50.926;7.080;2022-08-21T07:11:40;14.70;;;7.47;;
10132;SDS011;5106;50.926;7.080;2022-08-21T07:14:06;10.10;;;6.88;;
10132;SDS011;5106;50.926;7.080;2022-08-21T07:16:31;8.85;;;6.05;;
10132;SDS011;5106;50.926;7.080;2022-08-21T07:18:57;11.00;;;6.90;;
10132;SDS011;5106;50.926;7.080;2022-08-21T07:21:23;10.38;;;6.13;;
10132;SDS011;5106;50.926;7.080;2022-08-21T07:23:49;7.38;;;5.28;;
10132;SDS011;5106;50.926;7.080;2022-08-21T07:26:17;8.18;;;6.00;;
10132;SDS011;5106;50.926;7.080;2022-08-21T07:28:46;10.57;;;6.55;;
10132;SDS011;5106;50.926;7.080;2022-08-21T07:31:13;7.50;;;6.10;;
10132;SDS011;5106;50.926;7.080;2022-08-21T07:33:41;12.25;;;6.68;;
10132;SDS011;5106;50.926;7.080;2022-08-21T07:36:07;8.27;;;6.10;;
10132;SDS011;5106;50.926;7.080;2022-08-21T07:38:33;7.20;;;5.75;;
10132;SDS011;5106;50.926;7.080;2022-08-21T07:41:00;8.40;;;6.00;;
10132;SDS011;5106;50.926;7.080;2022-08-21T07:43:27;8.38;;;6.03;;
10132;SDS011;5106;50.926;7.080;2022-08-21T07:45:54;9.25;;;5.43;;
10132;SDS011;5106;50.926;7.080;2022-08-21T07:48:20;6.32;;;4.38;;
10132;SDS011;5106;50.926;7.080;2022-08-21T07:50:47;7.05;;;4.47;;
10132;SDS011;5106;50.926;7.080;2022-08-21T07:53:13;7.35;;;4.50;;
10132;SDS011;5106;50.926;7.080;2022-08-21T07:55:39;5.45;;;4.60;;
10132;SDS011;5106;50.926;7.080;2022-08-21T07:58:05;5.93;;;4.00;;
10132;SDS011;5106;50.926;7.080;2022-08-21T08:00:31;6.50;;;3.88;;
10132;SDS011;5106;50.926;7.080;2022-08-21T08:02:57;6.78;;;3.95;;
10132;SDS011;5106;50.926;7.080;2022-08-21T08:05:24;6.50;;;4.43;;
10132;SDS011;5106;50.926;7.080;2022-08-21T08:07:52;7.50;;;4.25;;
10132;SDS011;5106;50.926;7.080;2022-08-21T08:10:18;6.70;;;3.92;;
10132;SDS011;5106;50.926;7.080;2022-08-21T08:12:45;8.85;;;3.78;;
10132;SDS011;5106;50.926;7.080;2022-08-21T08:15:13;6.40;;;3.47;;
10132;SDS011;5106;50.926;7.080;2022-08-21T08:17:41;7.80;;;3.47;;
10132;SDS011;5106;50.926;7.080;2022-08-21T08:20:07;7.32;;;3.88;;
10132;SDS011;5106;50.926;7.080;2022-08-21T08:22:34;7.05;;;3.72;;
10132;SDS011;5106;50.926;7.080;2022-08-21T08:25:02;8.13;;;4.32;;
10132;SDS011;5106;50.926;7.080;2022-08-21T08:27:29;7.57;;;3.65;;
10132;SDS011;5106;50.926;7.080;2022-08-21T08:29:55;7.65;;;3.65;;
10132;SDS011;5106;50.926;7.080;2022-08-21T08:32:20;5.97;;;3.55;;
10132;SDS011;5106;50.926;7.080;2022-08-21T08:34:47;6.53;;;3.42;;
10132;SDS011;5106;50.926;7.080;2022-08-21T08:37:13;6.63;;;3.70;;
10132;SDS011;5106;50.926;7.080;2022-08-21T08:39:39;6.82;;;3.22;;
10132;SDS011;5106;50.926;7.080;2022-08-21T08:42:11;7.95;;;3.38;;
10132;SDS011;5106;50.926;7.080;2022-08-21T08:44:42;9.10;;;3.47;;
10132;SDS011;5106;50.926;7.080;2022-08-21T08:47:10;7.22;;;3.28;;
10132;SDS011;5106;50.926;7.080;2022-08-21T08:52:29;7.60;;;3.13;;
10132;SDS011;5106;50.926;7.080;2022-08-21T08:55:03;4.97;;;2.80;;
10132;SDS011;5106;50.926;7.080;2022-08-21T08:57:32;4.13;;;2.70;;
10132;SDS011;5106;50.926;7.080;2022-08-21T09:00:01;6.60;;;2.33;;
10132;SDS011;5106;50.926;7.080;2022-08-21T09:02:41;8.27;;;2.80;;
10132;SDS011;5106;50.926;7.080;2022-08-21T09:05:09;4.85;;;2.80;;
10132;SDS011;5106;50.926;7.080;2022-08-21T09:08:11;6.80;;;2.90;;
10132;SDS011;5106;50.926;7.080;2022-08-21T09:11:04;6.72;;;2.50;;
10132;SDS011;5106;50.926;7.080;2022-08-21T09:21:53;5.63;;;2.30;;
10132;SDS011;5106;50.926;7.080;2022-08-21T09:24:37;4.90;;;2.00;;
10132;SDS011;5106;50.926;7.080;2022-08-21T09:27:12;4.68;;;1.75;;
10132;SDS011;5106;50.926;7.080;2022-08-21T09:29:41;5.32;;;2.20;;
10132;SDS011;5106;50.926;7.080;2022-08-21T09:32:14;6.53;;;2.40;;
10132;SDS011;5106;50.926;7.080;2022-08-21T09:37:51;7.43;;;2.35;;
10132;SDS011;5106;50.926;7.080;2022-08-21T09:40:26;4.10;;;1.63;;
10132;SDS011;5106;50.926;7.080;2022-08-21T09:43:05;5.95;;;1.80;;
10132;SDS011;5106;50.926;7.080;2022-08-21T09:45:47;5.68;;;2.13;;
10132;SDS011;5106;50.926;7.080;2022-08-21T09:48:21;4.07;;;1.77;;
10132;SDS011;5106;50.926;7.080;2022-08-21T09:50:49;5.28;;;2.33;;
10132;SDS011;5106;50.926;7.080;2022-08-21T09:53:24;4.97;;;2.05;;
10132;SDS011;5106;50.926;7.080;2022-08-21T09:55:53;7.15;;;2.22;;
10132;SDS011;5106;50.926;7.080;2022-08-21T09:58:43;4.95;;;2.15;;
10132;SDS011;5106;50.926;7.080;2022-08-21T10:01:15;4.18;;;2.00;;
10132;SDS011;5106;50.926;7.080;2022-08-21T10:03:48;4.05;;;2.20;;
10132;SDS011;5106;50.926;7.080;2022-08-21T10:06:27;8.25;;;2.17;;
10132;SDS011;5106;50.926;7.080;2022-08-21T10:11:38;3.35;;;1.73;;
10132;SDS011;5106;50.926;7.080;2022-08-21T10:30:15;5.97;;;2.15;;
10132;SDS011;5106;50.926;7.080;2022-08-21T10:35:41;4.68;;;1.88;;
10132;SDS011;5106;50.926;7.080;2022-08-21T10:55:02;3.65;;;1.83;;
10132;SDS011;5106;50.926;7.080;2022-08-21T10:58:08;6.07;;;2.05;;
10132;SDS011;5106;50.926;7.080;2022-08-21T11:00:46;7.28;;;2.17;;
10132;SDS011;5106;50.926;7.080;2022-08-21T11:06:05;5.72;;;2.15;;
10132;SDS011;5106;50.926;7.080;2022-08-21T11:08:41;3.83;;;1.85;;
10132;SDS011;5106;50.926;7.080;2022-08-21T11:11:24;5.72;;;2.10;;
10132;SDS011;5106;50.926;7.080;2022-08-21T11:14:03;5.40;;;1.63;;
10132;SDS011;5106;50.926;7.080;2022-08-21T11:16:42;5.18;;;1.67;;
10132;SDS011;5106;50.926;7.080;2022-08-21T11:19:16;4.53;;;1.95;;
10132;SDS011;5106;50.926;7.080;2022-08-21T11:25:11;4.07;;;1.55;;
10132;SDS011;5106;50.926;7.080;2022-08-21T11:30:14;6.10;;;2.08;;
10132;SDS011;5106;50.926;7.080;2022-08-21T11:36:02;4.60;;;1.90;;
10132;SDS011;5106;50.926;7.080;2022-08-21T11:38:50;5.15;;;2.00;;
10132;SDS011;5106;50.926;7.080;2022-08-21T11:41:28;4.15;;;1.90;;
10132;SDS011;5106;50.926;7.080;2022-08-21T11:46:47;4.07;;;1.90;;
10132;SDS011;5106;50.926;7.080;2022-08-21T11:54:48;5.05;;;1.83;;
10132;SDS011;5106;50.926;7.080;2022-08-21T11:57:25;5.47;;;2.22;;
10132;SDS011;5106;50.926;7.080;2022-08-21T12:00:16;3.50;;;1.60;;
10132;SDS011;5106;50.926;7.080;2022-08-21T12:02:51;4.15;;;1.65;;
10132;SDS011;5106;50.926;7.080;2022-08-21T12:05:39;5.15;;;1.60;;
10132;SDS011;5106;50.926;7.080;2022-08-21T12:10:39;4.75;;;1.73;;
10132;SDS011;5106;50.926;7.080;2022-08-21T12:13:11;2.47;;;1.40;;
10132;SDS011;5106;50.926;7.080;2022-08-21T12:15:49;3.65;;;1.63;;
10132;SDS011;5106;50.926;7.080;2022-08-21T12:18:21;4.60;;;1.70;;
10132;SDS011;5106;50.926;7.080;2022-08-21T12:23:42;4.63;;;1.63;;
10132;SDS011;5106;50.926;7.080;2022-08-21T12:26:34;3.33;;;1.42;;
10132;SDS011;5106;50.926;7.080;2022-08-21T12:29:21;4.00;;;1.40;;
10132;SDS011;5106;50.926;7.080;2022-08-21T12:31:50;4.97;;;1.77;;
10132;SDS011;5106;50.926;7.080;2022-08-21T12:34:31;2.67;;;1.25;;
10132;SDS011;5106;50.926;7.080;2022-08-21T12:40:05;5.13;;;1.50;;
10132;SDS011;5106;50.926;7.080;2022-08-21T12:42:45;3.55;;;1.50;;
10132;SDS011;5106;50.926;7.080;2022-08-21T12:48:04;5.55;;;1.60;;
10132;SDS011;5106;50.926;7.080;2022-08-21T12:53:26;3.70;;;1.77;;
10132;SDS011;5106;50.926;7.080;2022-08-21T12:56:01;2.72;;;1.40;;
10132;SDS011;5106;50.926;7.080;2022-08-21T12:58:29;4.03;;;1.60;;
10132;SDS011;5106;50.926;7.080;2022-08-21T13:00:58;4.45;;;1.58;;
10132;SDS011;5106;50.926;7.080;2022-08-21T13:03:31;4.18;;;1.55;;
10132;SDS011;5106;50.926;7.080;2022-08-21T13:06:00;3.58;;;1.77;;
10132;SDS011;5106;50.926;7.080;2022-08-21T13:08:28;4.38;;;1.85;;
10132;SDS011;5106;50.926;7.080;2022-08-21T13:11:04;3.50;;;1.70;;
10132;SDS011;5106;50.926;7.080;2022-08-21T13:13:31;3.35;;;1.58;;
10132;SDS011;5106;50.926;7.080;2022-08-21T13:16:05;3.90;;;1.60;;
10132;SDS011;5106;50.926;7.080;2022-08-21T13:21:35;5.30;;;1.92;;
10132;SDS011;5106;50.926;7.080;2022-08-21T13:26:52;4.30;;;1.63;;
10132;SDS011;5106;50.926;7.080;2022-08-21T13:29:20;3.38;;;1.60;;
10132;SDS011;5106;50.926;7.080;2022-08-21T13:31:52;3.30;;;1.40;;
10132;SDS011;5106;50.926;7.080;2022-08-21T13:34:21;2.67;;;1.33;;
10132;SDS011;5106;50.926;7.080;2022-08-21T13:36:49;2.55;;;1.58;;
10132;SDS011;5106;50.926;7.080;2022-08-21T13:39:18;3.55;;;1.77;;
10132;SDS011;5106;50.926;7.080;2022-08-21T13:41:46;2.65;;;1.52;;
10132;SDS011;5106;50.926;7.080;2022-08-21T13:44:18;3.17;;;1.42;;
10132;SDS011;5106;50.926;7.080;2022-08-21T13:46:47;2.85;;;1.70;;
10132;SDS011;5106;50.926;7.080;2022-08-21T13:49:15;3.55;;;1.65;;
10132;SDS011;5106;50.926;7.080;2022-08-21T13:51:43;4.10;;;1.70;;
10132;SDS011;5106;50.926;7.080;2022-08-21T13:54:22;7.80;;;1.90;;
10132;SDS011;5106;50.926;7.080;2022-08-21T13:56:52;3.78;;;1.60;;
10132;SDS011;5106;50.926;7.080;2022-08-21T13:59:35;2.40;;;1.55;;
10132;SDS011;5106;50.926;7.080;2022-08-21T14:02:08;2.90;;;1.50;;
10132;SDS011;5106;50.926;7.080;2022-08-21T14:04:36;5.18;;;1.80;;
10132;SDS011;5106;50.926;7.080;2022-08-21T14:07:35;3.55;;;1.55;;
10132;SDS011;5106;50.926;7.080;2022-08-21T14:10:14;3.70;;;1.60;;
10132;SDS011;5106;50.926;7.080;2022-08-21T14:12:46;4.50;;;1.92;;
10132;SDS011;5106;50.926;7.080;2022-08-21T14:15:15;3.63;;;1.80;;
10132;SDS011;5106;50.926;7.080;2022-08-21T14:17:43;5.88;;;1.70;;
10132;SDS011;5106;50.926;7.080;2022-08-21T14:20:13;2.97;;;1.50;;
10132;SDS011;5106;50.926;7.080;2022-08-21T14:22:53;5.10;;;2.00;;
10132;SDS011;5106;50.926;7.080;2022-08-21T14:27:50;4.20;;;1.70;;
10132;SDS011;5106;50.926;7.080;2022-08-21T14:32:51;3.92;;;1.60;;
10132;SDS011;5106;50.926;7.080;2022-08-21T14:35:18;3.33;;;1.50;;
10132;SDS011;5106;50.926;7.080;2022-08-21T14:37:46;6.00;;;1.75;;
10132;SDS011;5106;50.926;7.080;2022-08-21T14:40:12;3.78;;;1.73;;
10132;SDS011;5106;50.926;7.080;2022-08-21T14:42:39;6.20;;;1.95;;
10132;SDS011;5106;50.926;7.080;2022-08-21T14:45:16;4.13;;;1.60;;
10132;SDS011;5106;50.926;7.080;2022-08-21T14:47:42;3.20;;;1.50;;
10132;SDS011;5106;50.926;7.080;2022-08-21T14:50:08;3.17;;;1.80;;
10132;SDS011;5106;50.926;7.080;2022-08-21T14:52:35;4.50;;;1.58;;
10132;SDS011;5106;50.926;7.080;2022-08-21T14:55:02;3.97;;;1.63;;
10132;SDS011;5106;50.926;7.080;2022-08-21T14:57:30;3.95;;;1.63;;
10132;SDS011;5106;50.926;7.080;2022-08-21T14:59:56;4.05;;;1.70;;
10132;SDS011;5106;50.926;7.080;2022-08-21T15:02:22;3.10;;;1.52;;
10132;SDS011;5106;50.926;7.080;2022-08-21T15:04:47;4.85;;;2.03;;
10132;SDS011;5106;50.926;7.080;2022-08-21T15:07:13;4.40;;;1.52;;
10132;SDS011;5106;50.926;7.080;2022-08-21T15:09:39;4.20;;;1.60;;
10132;SDS011;5106;50.926;7.080;2022-08-21T15:12:05;2.67;;;1.27;;
10132;SDS011;5106;50.926;7.080;2022-08-21T15:14:33;4.43;;;1.75;;
10132;SDS011;5106;50.926;7.080;2022-08-21T15:17:01;3.92;;;1.60;;
10132;SDS011;5106;50.926;7.080;2022-08-21T15:19:28;6.78;;;2.20;;
10132;SDS011;5106;50.926;7.080;2022-08-21T15:21:54;4.40;;;2.00;;
10132;SDS011;5106;50.926;7.080;2022-08-21T15:24:20;2.85;;;1.58;;
10132;SDS011;5106;50.926;7.080;2022-08-21T15:26:46;3.72;;;1.92;;
10132;SDS011;5106;50.926;7.080;2022-08-21T15:29:12;4.72;;;1.48;;
10132;SDS011;5106;50.926;7.080;2022-08-21T15:31:49;4.50;;;1.67;;
10132;SDS011;5106;50.926;7.080;2022-08-21T15:34:21;3.10;;;1.60;;
10132;SDS011;5106;50.926;7.080;2022-08-21T15:36:48;4.22;;;1.60;;
10132;SDS011;5106;50.926;7.080;2022-08-21T15:39:14;2.17;;;1.50;;
10132;SDS011;5106;50.926;7.080;2022-08-21T15:41:40;3.28;;;1.38;;
10132;SDS011;5106;50.926;7.080;2022-08-21T15:44:06;2.90;;;1.63;;
10132;SDS011;5106;50.926;7.080;2022-08-21T15:46:33;2.33;;;1.35;;
10132;SDS011;5106;50.926;7.080;2022-08-21T15:48:59;3.97;;;1.30;;
10132;SDS011;5106;50.926;7.080;2022-08-21T15:51:25;4.07;;;1.50;;
10132;SDS011;5106;50.926;7.080;2022-08-21T15:53:50;3.88;;;1.63;;
10132;SDS011;5106;50.926;7.080;2022-08-21T15:56:24;2.60;;;1.52;;
10132;SDS011;5106;50.926;7.080;2022-08-21T15:58:54;3.58;;;1.50;;
10132;SDS011;5106;50.926;7.080;2022-08-21T16:01:27;6.45;;;1.50;;
10132;SDS011;5106;50.926;7.080;2022-08-21T16:03:53;3.28;;;1.40;;
10132;SDS011;5106;50.926;7.080;2022-08-21T16:06:19;2.60;;;1.42;;
10132;SDS011;5106;50.926;7.080;2022-08-21T16:08:45;4.25;;;1.63;;
10132;SDS011;5106;50.926;7.080;2022-08-21T16:11:11;4.13;;;1.40;;
10132;SDS011;5106;50.926;7.080;2022-08-21T16:13:39;1.40;;;1.10;;
10132;SDS011;5106;50.926;7.080;2022-08-21T16:16:10;3.58;;;1.50;;
10132;SDS011;5106;50.926;7.080;2022-08-21T16:18:39;3.70;;;1.60;;
10132;SDS011;5106;50.926;7.080;2022-08-21T16:21:05;3.03;;;1.50;;
10132;SDS011;5106;50.926;7.080;2022-08-21T16:23:32;4.20;;;1.40;;
10132;SDS011;5106;50.926;7.080;2022-08-21T16:25:59;2.92;;;1.58;;
10132;SDS011;5106;50.926;7.080;2022-08-21T16:28:27;2.60;;;1.58;;
10132;SDS011;5106;50.926;7.080;2022-08-21T16:30:53;2.67;;;1.75;;
10132;SDS011;5106;50.926;7.080;2022-08-21T16:33:36;2.85;;;1.35;;
10132;SDS011;5106;50.926;7.080;2022-08-21T16:36:07;3.40;;;1.60;;
10132;SDS011;5106;50.926;7.080;2022-08-21T16:38:34;3.58;;;1.52;;
10132;SDS011;5106;50.926;7.080;2022-08-21T16:41:02;3.35;;;1.50;;
10132;SDS011;5106;50.926;7.080;2022-08-21T16:43:33;3.05;;;1.60;;
10132;SDS011;5106;50.926;7.080;2022-08-21T16:45:59;6.40;;;1.83;;
10132;SDS011;5106;50.926;7.080;2022-08-21T16:48:25;4.32;;;1.45;;
10132;SDS011;5106;50.926;7.080;2022-08-21T16:50:53;2.67;;;1.42;;
10132;SDS011;5106;50.926;7.080;2022-08-21T16:53:19;2.50;;;1.50;;